createdAt,value
2022-09-16T03:02:01.276Z,99883.94
2022-09-16T03:04:29.151Z,99882.19
2022-09-16T03:06:55.800Z,99889.38
2022-09-16T03:09:24.151Z,99885.00
2022-09-16T03:12:28.730Z,99884.31
2022-09-16T03:14:57.840Z,99887.56
2022-09-16T03:17:46.305Z,99889.72
2022-09-16T03:20:26.369Z,99901.19
2022-09-16T03:23:00.949Z,99890.47
2022-09-16T03:25:42.365Z,99881.97
2022-09-16T03:28:30.318Z,99888.66
2022-09-16T03:31:07.103Z,99885.00
2022-09-16T03:33:36.245Z,99887.19
2022-09-16T03:36:05.732Z,99891.91
2022-09-16T03:38:35.562Z,99882.31
2022-09-16T03:41:07.295Z,99877.44
2022-09-16T03:43:33.666Z,99878.75
2022-09-16T03:46:00.437Z,99879.00
2022-09-16T03:48:26.939Z,99881.47
2022-09-16T03:50:53.529Z,99876.19
2022-09-16T03:53:20.073Z,99872.19
2022-09-16T03:55:49.801Z,99878.34
2022-09-16T03:58:16.323Z,99880.66
2022-09-16T04:00:42.781Z,99884.00
2022-09-16T04:03:09.341Z,99879.13
2022-09-16T04:05:35.745Z,99879.63
2022-09-16T04:08:02.364Z,99868.22
2022-09-16T04:10:28.983Z,99869.00
2022-09-16T04:12:58.748Z,99863.53
2022-09-16T04:15:25.261Z,99864.63
2022-09-16T04:17:51.886Z,99877.09
2022-09-16T04:20:18.611Z,99874.88
2022-09-16T04:22:45.050Z,99874.09
2022-09-16T04:25:11.510Z,99879.97
2022-09-16T04:27:38.148Z,99878.63
2022-09-16T04:30:05.275Z,99882.38
2022-09-16T04:32:31.704Z,99880.84
2022-09-16T04:34:58.371Z,99882.81
2022-09-16T04:37:24.849Z,99877.03
2022-09-16T04:39:51.366Z,99879.13
2022-09-16T04:42:17.951Z,99872.31
2022-09-16T04:44:44.820Z,99874.16
2022-09-16T04:47:11.262Z,99870.13
2022-09-16T04:49:37.774Z,99874.22
2022-09-16T04:52:04.275Z,99870.19
2022-09-16T04:54:30.907Z,99865.91
2022-09-16T04:56:57.690Z,99869.53
2022-09-16T04:59:24.101Z,99862.44
2022-09-16T05:01:50.732Z,99870.34
2022-09-16T05:04:17.277Z,99872.41
2022-09-16T05:06:44.509Z,99867.31
2022-09-16T05:09:12.543Z,99872.50
2022-09-16T05:11:40.467Z,99878.22
2022-09-16T05:14:10.842Z,99869.34
2022-09-16T05:16:37.308Z,99872.41
2022-09-16T05:19:07.637Z,99871.59
2022-09-16T05:21:36.354Z,99864.53
2022-09-16T05:24:05.249Z,99872.50
2022-09-16T05:26:35.411Z,99874.81
2022-09-16T05:29:04.248Z,99871.31
2022-09-16T05:31:32.738Z,99869.44
2022-09-16T05:34:06.109Z,99868.59
2022-09-16T05:36:37.418Z,99867.97
2022-09-16T05:41:54.309Z,99865.13
2022-09-16T05:44:20.729Z,99871.81
2022-09-16T05:46:47.188Z,99877.56
2022-09-16T05:49:13.901Z,99878.44
2022-09-16T05:51:41.945Z,99873.09
2022-09-16T05:54:08.809Z,99868.25
2022-09-16T05:56:35.330Z,99867.16
2022-09-16T05:59:02.221Z,99876.50
2022-09-16T06:01:34.602Z,99872.22
2022-09-16T06:04:03.361Z,99865.03
2022-09-16T06:06:32.311Z,99869.28
2022-09-16T06:09:12.806Z,99857.72
2022-09-16T06:11:45.814Z,99866.81
2022-09-16T06:14:13.661Z,99872.19
2022-09-16T06:16:40.203Z,99874.69
2022-09-16T06:19:12.979Z,99873.09
2022-09-16T06:21:40.596Z,99867.03
2022-09-16T06:24:10.508Z,99865.16
2022-09-16T06:26:38.785Z,99869.84
2022-09-16T06:29:06.385Z,99868.56
2022-09-16T06:31:33.960Z,99872.63
2022-09-16T06:34:00.560Z,99871.06
2022-09-16T06:36:32.865Z,99867.09
2022-09-16T06:38:59.509Z,99865.59
2022-09-16T06:41:26.207Z,99868.03
2022-09-16T06:43:52.742Z,99862.53
2022-09-16T06:46:27.324Z,99860.34
2022-09-16T06:48:59.291Z,99864.81
2022-09-16T06:51:31.403Z,99870.59
2022-09-16T06:54:04.151Z,99859.88
2022-09-16T06:56:30.687Z,99864.16
2022-09-16T06:58:57.330Z,99864.88
2022-09-16T07:01:26.540Z,99869.50
2022-09-16T07:03:54.270Z,99876.59
2022-09-16T07:06:22.308Z,99877.00
2022-09-16T07:08:49.132Z,99872.00
2022-09-16T07:11:21.806Z,99875.13
2022-09-16T07:13:49.693Z,99868.31
2022-09-16T07:16:18.913Z,99872.00
2022-09-16T07:18:46.851Z,99879.28
2022-09-16T07:21:16.021Z,99867.59
2022-09-16T07:23:43.663Z,99874.50
2022-09-16T07:26:31.420Z,99870.72
2022-09-16T07:29:03.215Z,99868.66
2022-09-16T07:31:32.314Z,99874.09
2022-09-16T07:34:04.263Z,99880.25
2022-09-16T07:36:34.164Z,99871.81
2022-09-16T07:39:00.640Z,99873.91
2022-09-16T07:41:33.276Z,99878.00
2022-09-16T07:44:00.673Z,99877.13
2022-09-16T07:46:29.309Z,99880.28
2022-09-16T07:48:56.544Z,99880.63
2022-09-16T07:51:25.123Z,99883.03
2022-09-16T07:53:59.405Z,99884.59
2022-09-16T07:56:29.063Z,99885.34
2022-09-16T07:58:56.910Z,99890.38
2022-09-16T08:01:24.737Z,99890.91
2022-09-16T08:03:51.413Z,99888.38
2022-09-16T08:06:20.529Z,99889.78
2022-09-16T08:08:47.245Z,99882.13
2022-09-16T08:11:15.057Z,99892.94
2022-09-16T08:13:43.149Z,99889.00
2022-09-16T08:16:15.354Z,99904.75
2022-09-16T08:18:42.449Z,99887.94
2022-09-16T08:21:13.721Z,99892.59
2022-09-16T08:23:40.967Z,99892.41
2022-09-16T08:26:09.649Z,99895.53
2022-09-16T08:28:45.458Z,99895.19
2022-09-16T08:31:19.039Z,99896.88
2022-09-16T08:33:46.064Z,99890.44
2022-09-16T08:36:16.279Z,99894.59
2022-09-16T08:38:44.732Z,99891.47
2022-09-16T08:41:35.964Z,99887.44
2022-09-16T08:44:25.645Z,99890.19
2022-09-16T08:46:59.722Z,99897.50
2022-09-16T08:49:47.084Z,99885.25
2022-09-16T08:52:28.313Z,99888.75
2022-09-16T08:55:02.493Z,99883.88
2022-09-16T08:57:32.996Z,99888.13
2022-09-16T09:00:08.068Z,99887.16
2022-09-16T09:02:37.846Z,99878.97
2022-09-16T09:05:17.941Z,99878.03
2022-09-16T09:08:15.568Z,99873.53
2022-09-16T09:10:54.614Z,99872.19
2022-09-16T09:13:33.131Z,99881.09
2022-09-16T09:16:38.552Z,99882.97
2022-09-16T09:19:23.895Z,99884.09
2022-09-16T09:22:13.740Z,99877.75
2022-09-16T09:24:57.073Z,99867.84
2022-09-16T09:27:37.849Z,99868.63
2022-09-16T09:30:17.329Z,99867.38
2022-09-16T09:33:44.971Z,99860.66
2022-09-16T09:36:32.309Z,99873.44
2022-09-16T09:39:07.528Z,99861.13
2022-09-16T09:41:43.171Z,99865.28
2022-09-16T09:44:48.278Z,99866.56
2022-09-16T09:47:22.798Z,99860.84
2022-09-16T09:49:57.505Z,99863.41
2022-09-16T09:52:31.208Z,99858.28
2022-09-16T09:55:06.543Z,99867.91
2022-09-16T09:57:33.018Z,99856.16
2022-09-16T09:59:59.816Z,99854.50
2022-09-16T10:02:26.574Z,99856.41
2022-09-16T10:04:53.246Z,99857.13
2022-09-16T10:07:22.511Z,99852.28
2022-09-16T10:09:55.239Z,99850.06
2022-09-16T10:12:29.330Z,99858.09
2022-09-16T10:14:56.011Z,99847.09
2022-09-16T10:17:22.614Z,99848.78
2022-09-16T10:19:59.347Z,99848.06
2022-09-16T10:22:34.041Z,99852.72
2022-09-16T10:25:07.877Z,99851.63
2022-09-16T10:27:37.001Z,99837.91
2022-09-16T10:30:10.281Z,99838.72
2022-09-16T10:33:08.194Z,99830.38
2022-09-16T10:35:37.402Z,99836.41
2022-09-16T10:38:13.073Z,99841.75
2022-09-16T10:41:10.896Z,99840.06
2022-09-16T10:43:39.527Z,99839.72
2022-09-16T10:46:14.353Z,99843.00
2022-09-16T10:48:42.971Z,99844.59
2022-09-16T10:51:22.634Z,99834.50
2022-09-16T10:53:56.292Z,99838.22
2022-09-16T10:56:31.601Z,99847.66
2022-09-16T10:59:09.417Z,99830.66
2022-09-16T11:01:47.242Z,99832.31
2022-09-16T11:05:02.740Z,99818.47
2022-09-16T11:07:42.273Z,99823.88
2022-09-16T11:10:29.778Z,99833.09
2022-09-16T11:13:20.264Z,99833.03
2022-09-16T11:15:56.077Z,99816.59
2022-09-16T11:18:36.061Z,99823.16
2022-09-16T11:21:08.265Z,99823.44
2022-09-16T11:24:08.273Z,99814.84
2022-09-16T11:26:35.419Z,99818.63
2022-09-16T11:29:31.202Z,99814.53
2022-09-16T11:32:10.333Z,99810.22
2022-09-16T11:34:48.883Z,99811.09
2022-09-16T11:37:39.069Z,99814.91
2022-09-16T11:40:32.044Z,99806.16
2022-09-16T11:43:21.300Z,99804.97
2022-09-16T11:46:16.032Z,99804.38
2022-09-16T11:48:45.195Z,99810.81
2022-09-16T11:51:20.318Z,99798.31
2022-09-16T11:54:31.069Z,99796.22
2022-09-16T11:57:02.496Z,99778.28
2022-09-16T11:59:39.949Z,99786.53
2022-09-16T12:02:18.061Z,99788.78
2022-09-16T12:04:51.384Z,99791.28
2022-09-16T12:10:00.001Z,99787.19
2022-09-16T12:12:35.275Z,99788.59
2022-09-16T12:15:07.355Z,99783.56
2022-09-16T12:17:37.297Z,99779.28
2022-09-16T12:20:25.375Z,99766.34
2022-09-16T12:23:17.545Z,99768.69
2022-09-16T12:25:57.740Z,99758.94
2022-09-16T12:28:31.429Z,99757.22
2022-09-16T12:31:20.566Z,99755.59
2022-09-16T12:34:11.616Z,99747.63
2022-09-16T12:36:45.886Z,99754.81
2022-09-16T12:39:12.823Z,99748.66
2022-09-16T12:42:00.546Z,99757.59
2022-09-16T12:44:34.310Z,99750.59
2022-09-16T12:47:06.999Z,99743.88
2022-09-16T12:50:10.754Z,99751.03
2022-09-16T12:52:49.679Z,99753.50
2022-09-16T12:55:31.698Z,99755.13
2022-09-16T12:58:16.549Z,99760.28
2022-09-16T13:00:58.422Z,99752.88
2022-09-16T13:03:28.689Z,99752.72
2022-09-16T13:05:58.288Z,99745.81
2022-09-16T13:08:30.728Z,99750.28
2022-09-16T13:11:30.338Z,99741.44
2022-09-16T13:13:50.447Z,99732.13
2022-09-16T13:16:34.380Z,99738.06
2022-09-16T13:19:26.164Z,99731.84
2022-09-16T13:21:57.749Z,99734.28
2022-09-16T13:24:37.962Z,99731.44
2022-09-16T13:27:28.189Z,99731.88
2022-09-16T13:30:13.388Z,99722.44
2022-09-16T13:33:00.062Z,99736.56
2022-09-16T13:35:42.854Z,99721.13
2022-09-16T13:38:15.298Z,99726.09
2022-09-16T13:40:55.670Z,99721.00
2022-09-16T13:43:48.816Z,99720.38
2022-09-16T13:46:27.052Z,99716.63
2022-09-16T13:49:05.758Z,99711.22
2022-09-16T13:51:45.396Z,99702.88
2022-09-16T13:55:10.106Z,99704.50
2022-09-16T13:57:49.280Z,99705.19
2022-09-16T14:00:53.852Z,99698.41
2022-09-16T14:03:36.915Z,99711.81
2022-09-16T14:06:40.753Z,99699.59
2022-09-16T14:09:34.054Z,99715.88
2022-09-16T14:12:31.993Z,99696.16
2022-09-16T14:15:00.338Z,99704.78
2022-09-16T14:17:38.050Z,99707.13
2022-09-16T14:20:05.514Z,99705.34
2022-09-16T14:22:33.671Z,99704.38
2022-09-16T14:25:06.973Z,99696.69
2022-09-16T14:27:46.094Z,99692.09
2022-09-16T14:30:18.123Z,99703.00
2022-09-16T14:32:47.176Z,99688.31
2022-09-16T14:35:24.495Z,99696.31
2022-09-16T14:37:56.210Z,99694.94
2022-09-16T14:40:26.200Z,99701.44
2022-09-16T14:43:08.218Z,99696.59
2022-09-16T14:45:37.242Z,99685.56
2022-09-16T14:48:09.612Z,99692.84
2022-09-16T14:50:45.886Z,99687.00
2022-09-16T14:53:34.827Z,99681.56
2022-09-16T14:56:02.840Z,99683.59
2022-09-16T14:58:32.049Z,99675.16
2022-09-16T15:01:12.566Z,99674.63
2022-09-16T15:03:53.570Z,99672.69
2022-09-16T15:06:31.251Z,99677.97
2022-09-16T15:09:16.518Z,99678.34
2022-09-16T15:11:57.244Z,99679.44
2022-09-16T15:14:24.782Z,99671.06
2022-09-16T15:16:57.958Z,99669.53
2022-09-16T15:19:35.482Z,99673.06
2022-09-16T15:22:03.359Z,99670.81
2022-09-16T15:24:33.300Z,99676.84
2022-09-16T15:27:00.704Z,99666.63
2022-09-16T15:29:34.181Z,99664.06
2022-09-16T15:32:31.917Z,99667.84
2022-09-16T15:35:25.006Z,99665.41
2022-09-16T15:37:55.297Z,99666.16
2022-09-16T15:40:27.825Z,99656.09
2022-09-16T15:43:17.990Z,99656.25
2022-09-16T15:45:59.148Z,99655.50
2022-09-16T15:48:30.523Z,99659.16
2022-09-16T15:51:11.433Z,99654.63
2022-09-16T15:53:44.972Z,99666.38
2022-09-16T15:56:30.956Z,99650.22
2022-09-16T15:59:01.875Z,99655.50
2022-09-16T16:01:53.275Z,99660.25
2022-09-16T16:04:26.612Z,99650.66
2022-09-16T16:07:01.727Z,99655.28
2022-09-16T16:09:29.451Z,99661.63
2022-09-16T16:12:01.506Z,99658.78
2022-09-16T16:14:32.763Z,99659.31
2022-09-16T16:17:13.829Z,99660.09
2022-09-16T16:19:45.816Z,99662.78
2022-09-16T16:22:14.265Z,99658.34
2022-09-16T16:24:41.494Z,99652.66
2022-09-16T16:27:08.835Z,99657.25
2022-09-16T16:29:35.401Z,99655.06
2022-09-16T16:32:10.914Z,99649.50
2022-09-16T16:34:39.940Z,99649.88
2022-09-16T16:37:07.734Z,99652.66
2022-09-16T16:39:34.938Z,99662.16
2022-09-16T16:42:02.095Z,99658.00
2022-09-16T16:44:28.525Z,99660.09
2022-09-16T16:46:55.727Z,99647.44
2022-09-16T16:49:22.760Z,99652.91
2022-09-16T16:51:51.232Z,99655.59
2022-09-16T16:54:18.715Z,99676.34
2022-09-16T16:56:46.042Z,99676.28
2022-09-16T16:59:12.650Z,99675.94
2022-09-16T17:01:39.172Z,99672.56
2022-09-16T17:04:06.198Z,99671.78
2022-09-16T17:06:34.932Z,99673.03
2022-09-16T17:09:01.978Z,99675.75
2022-09-16T17:11:28.738Z,99673.50
2022-09-16T17:14:01.964Z,99673.03
2022-09-16T17:16:29.787Z,99678.09
2022-09-16T17:18:58.805Z,99677.31
2022-09-16T17:21:28.815Z,99677.28
2022-09-16T17:23:55.763Z,99679.31
2022-09-16T17:26:23.021Z,99676.66
2022-09-16T17:28:50.904Z,99677.72
2022-09-16T17:31:24.402Z,99679.34
2022-09-16T17:33:58.783Z,99684.34
2022-09-16T17:36:26.324Z,99687.28
2022-09-16T17:38:57.479Z,99677.72
2022-09-16T17:41:27.038Z,99680.22
2022-09-16T17:43:54.745Z,99673.59
2022-09-16T17:46:23.181Z,99675.44
2022-09-16T17:48:52.897Z,99683.91
2022-09-16T17:51:20.150Z,99680.97
2022-09-16T17:53:46.625Z,99672.72
2022-09-16T17:56:15.230Z,99665.84
2022-09-16T17:58:44.738Z,99669.56
2022-09-16T18:01:13.844Z,99674.78
2022-09-16T18:03:42.610Z,99671.88
2022-09-16T18:06:15.189Z,99660.47
2022-09-16T18:08:42.034Z,99675.16
2022-09-16T18:11:10.898Z,99663.16
2022-09-16T18:13:37.903Z,99671.47
2022-09-16T18:16:19.465Z,99673.91
2022-09-16T18:18:49.425Z,99668.53
2022-09-16T18:21:17.732Z,99667.09
2022-09-16T18:23:44.681Z,99671.03
2022-09-16T18:26:13.464Z,99668.09
2022-09-16T18:29:08.199Z,99658.56
2022-09-16T18:31:30.122Z,99664.75
2022-09-16T18:33:56.904Z,99657.72
2022-09-16T18:36:25.503Z,99661.22
2022-09-16T18:38:57.182Z,99661.66
2022-09-16T18:41:28.064Z,99655.63
2022-09-16T18:43:59.926Z,99656.44
2022-09-16T18:46:36.913Z,99661.16
2022-09-16T18:49:04.218Z,99663.72
2022-09-16T18:51:36.559Z,99658.69
2022-09-16T18:54:14.060Z,99663.28
2022-09-16T18:56:41.170Z,99668.06
2022-09-16T18:59:22.574Z,99674.50
2022-09-16T19:01:55.274Z,99671.56
2022-09-16T19:04:24.746Z,99665.78
2022-09-16T19:06:54.091Z,99668.06
2022-09-16T19:09:22.617Z,99665.53
2022-09-16T19:11:49.828Z,99662.63
2022-09-16T19:14:16.637Z,99662.63
2022-09-16T19:16:44.945Z,99657.88
2022-09-16T19:19:14.524Z,99664.31
2022-09-16T19:21:42.253Z,99664.50
2022-09-16T19:24:14.157Z,99663.63
2022-09-16T19:26:41.977Z,99664.31
2022-09-16T19:29:09.709Z,99665.69
2022-09-16T19:31:38.894Z,99674.63
2022-09-16T19:34:06.044Z,99666.72
2022-09-16T19:36:34.017Z,99664.63
2022-09-16T19:39:01.041Z,99667.41
2022-09-16T19:41:30.053Z,99657.47
2022-09-16T19:43:59.382Z,99663.69
2022-09-16T19:46:27.472Z,99670.75
2022-09-16T19:48:54.664Z,99665.72
2022-09-16T19:51:23.603Z,99664.00
2022-09-16T19:53:51.809Z,99670.53
2022-09-16T19:56:24.192Z,99677.16
2022-09-16T19:58:51.868Z,99660.41
2022-09-16T20:01:24.007Z,99660.41
2022-09-16T20:03:51.024Z,99659.75
2022-09-16T20:06:24.135Z,99639.56
2022-09-16T20:09:01.056Z,99640.72
2022-09-16T20:11:33.633Z,99629.22
2022-09-16T20:14:03.369Z,99622.84
2022-09-16T20:16:35.510Z,99614.75
2022-09-16T20:19:04.276Z,99607.69
2022-09-16T20:21:30.938Z,99610.28
2022-09-16T20:23:57.449Z,99608.63
2022-09-16T20:26:24.022Z,99600.31
2022-09-16T20:28:53.586Z,99596.88
2022-09-16T20:31:23.301Z,99599.09
2022-09-16T20:33:50.987Z,99596.78
2022-09-16T20:36:19.932Z,99599.66
2022-09-16T20:38:46.958Z,99592.94
2022-09-16T20:41:19.516Z,99586.16
2022-09-16T20:43:46.701Z,99593.22
2022-09-16T20:46:24.756Z,99592.06
2022-09-16T20:48:55.546Z,99587.13
2022-09-16T20:51:24.859Z,99585.03
2022-09-16T20:54:07.704Z,99587.56
2022-09-16T20:56:38.800Z,99579.88
2022-09-16T20:59:10.792Z,99588.75
2022-09-16T21:01:38.022Z,99591.38
2022-09-16T21:04:07.799Z,99582.00
2022-09-16T21:06:35.853Z,99585.97
2022-09-16T21:09:06.083Z,99577.03
2022-09-16T21:11:33.139Z,99588.75
2022-09-16T21:14:06.412Z,99580.75
2022-09-16T21:16:34.845Z,99583.41
2022-09-16T21:19:03.964Z,99580.09
2022-09-16T21:21:30.727Z,99585.78
2022-09-16T21:23:58.593Z,99595.88
2022-09-16T21:26:24.969Z,99579.50
2022-09-16T21:28:59.448Z,99583.22
2022-09-16T21:31:28.231Z,99585.72
2022-09-16T21:33:56.683Z,99583.78
2022-09-16T21:36:24.995Z,99589.13
2022-09-16T21:38:51.622Z,99593.47
2022-09-16T21:41:21.201Z,99601.03
2022-09-16T21:43:51.137Z,99595.88
2022-09-16T21:46:22.891Z,99590.31
2022-09-16T21:48:50.436Z,99600.41
2022-09-16T21:51:18.730Z,99592.53
2022-09-16T21:53:46.308Z,99591.16
2022-09-16T21:56:16.192Z,99606.44
2022-09-16T21:58:43.325Z,99592.09
